createdAt,value
2022-10-05T00:00:23.405Z,100.00
2022-10-05T00:02:52.446Z,100.00
2022-10-05T00:05:32.823Z,100.00
2022-10-05T00:08:18.834Z,100.00
2022-10-05T00:10:46.562Z,100.00
2022-10-05T00:13:21.225Z,100.00
2022-10-05T00:15:49.439Z,100.00
2022-10-05T00:18:21.387Z,100.00
2022-10-05T00:20:48.955Z,100.00
2022-10-05T00:23:25.132Z,100.00
2022-10-05T00:25:52.066Z,100.00
2022-10-05T00:28:27.796Z,100.00
2022-10-05T00:30:59.163Z,100.00
2022-10-05T00:33:27.353Z,100.00
2022-10-05T00:35:55.074Z,100.00
2022-10-05T00:38:21.961Z,100.00
2022-10-05T00:41:01.311Z,100.00
2022-10-05T00:43:40.505Z,100.00
2022-10-05T00:46:49.609Z,100.00
2022-10-05T00:49:28.316Z,100.00
2022-10-05T00:52:27.094Z,100.00
2022-10-05T00:55:18.756Z,100.00
2022-10-05T00:58:35.341Z,100.00
2022-10-05T01:01:02.013Z,100.00
2022-10-05T01:03:37.853Z,100.00
2022-10-05T01:06:23.867Z,100.00
2022-10-05T01:08:58.562Z,100.00
2022-10-05T01:11:29.976Z,100.00
2022-10-05T01:14:15.097Z,100.00
2022-10-05T01:16:58.953Z,100.00
2022-10-05T01:20:06.951Z,100.00
2022-10-05T01:22:52.438Z,100.00
2022-10-05T01:25:37.233Z,100.00
2022-10-05T01:28:11.101Z,100.00
2022-10-05T01:30:54.776Z,100.00
2022-10-05T01:33:29.367Z,100.00
2022-10-05T01:36:04.408Z,100.00
2022-10-05T01:38:50.938Z,100.00
2022-10-05T01:41:41.209Z,100.00
2022-10-05T01:44:31.071Z,100.00
2022-10-05T01:47:21.529Z,100.00
2022-10-05T01:50:04.639Z,100.00
2022-10-05T01:52:32.141Z,100.00
2022-10-05T01:55:04.779Z,100.00
2022-10-05T01:57:37.443Z,100.00
2022-10-05T02:00:13.899Z,100.00
2022-10-05T02:03:22.393Z,100.00
2022-10-05T02:05:56.406Z,100.00
2022-10-05T02:08:41.008Z,100.00
2022-10-05T02:11:10.978Z,100.00
2022-10-05T02:13:47.469Z,100.00
2022-10-05T02:16:39.312Z,100.00
2022-10-05T02:19:30.728Z,100.00
2022-10-05T02:22:09.080Z,100.00
2022-10-05T02:24:43.563Z,100.00
2022-10-05T02:27:13.244Z,100.00
2022-10-05T02:29:45.780Z,100.00
2022-10-05T02:32:25.285Z,100.00
2022-10-05T02:34:52.878Z,100.00
2022-10-05T02:37:34.810Z,100.00
2022-10-05T02:40:13.322Z,100.00
2022-10-05T02:43:03.561Z,100.00
2022-10-05T02:46:07.574Z,100.00
2022-10-05T02:49:02.558Z,100.00
2022-10-05T02:51:46.049Z,100.00
2022-10-05T02:54:29.909Z,100.00
2022-10-05T02:57:04.237Z,100.00
2022-10-05T02:59:47.913Z,100.00
2022-10-05T03:02:24.627Z,100.00
2022-10-05T03:04:57.653Z,100.00
2022-10-05T03:07:34.001Z,100.00
2022-10-05T03:10:14.778Z,100.00
2022-10-05T03:12:45.468Z,100.00
2022-10-05T03:15:40.622Z,100.00
2022-10-05T03:18:57.424Z,100.00
2022-10-05T03:21:52.191Z,100.00
2022-10-05T03:24:38.336Z,100.00
2022-10-05T03:27:24.560Z,100.00
2022-10-05T03:30:19.799Z,100.00
2022-10-05T03:33:22.350Z,100.00
2022-10-05T03:36:01.177Z,100.00
2022-10-05T03:38:33.980Z,100.00
2022-10-05T03:41:20.957Z,100.00
2022-10-05T03:44:17.707Z,100.00
2022-10-05T03:46:57.805Z,100.00
2022-10-05T03:50:06.220Z,100.00
2022-10-05T03:52:45.456Z,100.00
2022-10-05T03:55:21.876Z,100.00
2022-10-05T03:57:52.262Z,100.00
2022-10-05T04:00:25.927Z,100.00
2022-10-05T04:03:15.976Z,100.00
2022-10-05T04:05:50.594Z,100.00
2022-10-05T04:08:26.936Z,100.00
2022-10-05T04:10:57.989Z,100.00
2022-10-05T04:13:37.472Z,100.00
2022-10-05T04:16:19.284Z,100.00
2022-10-05T04:19:18.219Z,100.00
2022-10-05T04:21:52.319Z,100.00
2022-10-05T04:24:32.072Z,100.00
2022-10-05T04:27:03.287Z,100.00
2022-10-05T04:29:46.764Z,100.00
2022-10-05T04:32:42.441Z,100.00
2022-10-05T04:35:23.325Z,100.00
2022-10-05T04:38:08.235Z,100.00
2022-10-05T04:41:09.266Z,100.00
2022-10-05T04:43:57.248Z,100.00
2022-10-05T04:46:43.300Z,100.00
2022-10-05T04:49:11.409Z,100.00
2022-10-05T04:51:41.397Z,100.00
2022-10-05T04:54:15.886Z,100.00
2022-10-05T04:56:49.550Z,100.00
2022-10-05T04:59:47.632Z,100.00
2022-10-05T05:02:26.223Z,100.00
2022-10-05T05:05:05.986Z,100.00
2022-10-05T05:07:48.028Z,100.00
2022-10-05T05:10:24.000Z,100.00
2022-10-05T05:13:11.507Z,100.00
2022-10-05T05:15:38.985Z,100.00
2022-10-05T05:18:15.272Z,100.00
2022-10-05T05:20:55.217Z,100.00
2022-10-05T05:24:01.209Z,100.00
2022-10-05T05:26:54.136Z,100.00
2022-10-05T05:29:42.678Z,100.00
2022-10-05T05:32:17.522Z,100.00
2022-10-05T05:34:47.377Z,100.00
2022-10-05T05:37:41.765Z,100.00
2022-10-05T05:40:27.651Z,100.00
2022-10-05T05:43:16.930Z,100.00
2022-10-05T05:45:47.014Z,100.00
2022-10-05T05:48:29.209Z,100.00
2022-10-05T05:51:34.623Z,100.00
2022-10-05T05:54:29.660Z,100.00
2022-10-05T05:57:10.887Z,100.00
2022-10-05T05:59:53.209Z,100.00
2022-10-05T06:02:28.467Z,100.00
2022-10-05T06:05:26.377Z,100.00
2022-10-05T06:07:56.039Z,100.00
2022-10-05T06:10:59.421Z,100.00
2022-10-05T06:13:34.365Z,100.00
2022-10-05T06:16:22.083Z,100.00
2022-10-05T06:19:04.009Z,100.00
2022-10-05T06:21:40.074Z,100.00
2022-10-05T06:24:17.137Z,100.00
2022-10-05T06:27:02.552Z,100.00
2022-10-05T06:29:43.998Z,100.00
2022-10-05T06:32:29.296Z,100.00
2022-10-05T06:35:14.581Z,100.00
2022-10-05T06:38:02.796Z,100.00
2022-10-05T06:40:46.080Z,100.00
2022-10-05T06:43:36.398Z,100.00
2022-10-05T06:46:32.435Z,100.00
2022-10-05T06:49:31.264Z,100.00
2022-10-05T06:52:46.778Z,100.00
2022-10-05T06:55:23.423Z,100.00
2022-10-05T06:58:09.607Z,100.00
2022-10-05T07:00:40.924Z,100.00
2022-10-05T07:03:40.832Z,100.00
2022-10-05T07:06:16.966Z,100.00
2022-10-05T07:09:16.715Z,100.00
2022-10-05T07:11:49.154Z,100.00
2022-10-05T07:14:36.125Z,100.00
2022-10-05T07:17:45.663Z,100.00
2022-10-05T07:20:49.227Z,100.00
2022-10-05T07:23:38.994Z,100.00
2022-10-05T07:26:09.478Z,100.00
2022-10-05T07:28:39.226Z,100.00
2022-10-05T07:31:19.240Z,100.00
2022-10-05T07:34:15.462Z,100.00
2022-10-05T07:37:24.316Z,100.00
2022-10-05T07:40:01.173Z,100.00
2022-10-05T07:42:50.493Z,100.00
2022-10-05T07:45:28.245Z,100.00
2022-10-05T07:47:59.488Z,100.00
2022-10-05T07:50:30.193Z,100.00
2022-10-05T07:53:13.212Z,100.00
2022-10-05T07:56:16.008Z,100.00
2022-10-05T07:58:51.746Z,100.00
2022-10-05T08:01:25.128Z,100.00
2022-10-05T08:04:01.771Z,100.00
2022-10-05T08:06:32.117Z,100.00
2022-10-05T08:09:07.246Z,100.00
2022-10-05T08:12:02.300Z,100.00
2022-10-05T08:14:39.305Z,100.00
2022-10-05T08:17:28.137Z,100.00
2022-10-05T08:20:22.071Z,100.00
2022-10-05T08:22:58.629Z,100.00
2022-10-05T08:25:35.553Z,100.00
2022-10-05T08:28:15.794Z,100.00
2022-10-05T08:31:09.583Z,100.00
2022-10-05T08:34:17.199Z,100.00
2022-10-05T08:37:00.557Z,100.00
2022-10-05T08:39:37.252Z,100.00
2022-10-05T08:42:32.738Z,100.00
2022-10-05T08:45:14.240Z,100.00
2022-10-05T08:48:02.261Z,100.00
2022-10-05T08:51:02.332Z,100.00
2022-10-05T08:53:32.136Z,100.00
2022-10-05T08:56:09.246Z,100.00
2022-10-05T08:58:44.629Z,100.00
2022-10-05T09:01:49.818Z,100.00
2022-10-05T09:04:31.191Z,100.00
2022-10-05T09:07:06.762Z,100.00
2022-10-05T09:10:03.731Z,100.00
2022-10-05T09:12:36.880Z,99.25
2022-10-05T09:15:44.778Z,98.83
2022-10-05T09:18:29.696Z,100.00
2022-10-05T09:21:08.976Z,93.55
2022-10-05T09:23:44.477Z,95.38
2022-10-05T09:26:32.575Z,88.86
2022-10-05T09:29:18.501Z,88.77
2022-10-05T09:32:33.967Z,89.78
2022-10-05T09:35:19.038Z,88.05
2022-10-05T09:38:13.051Z,86.26
2022-10-05T09:41:04.679Z,90.32
2022-10-05T09:43:46.439Z,85.91
2022-10-05T09:46:53.666Z,84.06
2022-10-05T09:49:55.861Z,86.04
2022-10-05T09:53:00.113Z,90.27
2022-10-05T09:55:35.895Z,88.50
2022-10-05T09:58:12.840Z,79.42
2022-10-05T10:01:09.290Z,80.30
2022-10-05T10:04:13.730Z,75.17
2022-10-05T10:06:56.746Z,73.77
2022-10-05T10:09:42.895Z,71.39
2022-10-05T10:12:49.113Z,74.60
2022-10-05T10:15:52.869Z,73.48
2022-10-05T10:18:19.978Z,67.80
2022-10-05T10:21:11.571Z,66.41
2022-10-05T10:24:11.540Z,69.41
2022-10-05T10:27:16.948Z,71.71
2022-10-05T10:29:58.689Z,69.98
2022-10-05T10:33:40.026Z,70.50
2022-10-05T10:36:33.848Z,69.54
2022-10-05T10:39:10.199Z,64.34
2022-10-05T10:42:03.032Z,65.54
2022-10-05T10:44:58.851Z,62.78
2022-10-05T10:47:50.541Z,64.91
2022-10-05T10:51:11.085Z,60.57
2022-10-05T10:54:03.275Z,60.40
2022-10-05T10:56:54.554Z,58.57
2022-10-05T10:59:54.709Z,57.08
2022-10-05T11:02:59.506Z,61.88
2022-10-05T11:05:32.180Z,63.35
2022-10-05T11:08:34.340Z,62.51
2022-10-05T11:11:19.201Z,63.79
2022-10-05T11:14:04.493Z,66.30
2022-10-05T11:16:55.678Z,65.51
2022-10-05T11:20:02.885Z,65.95
2022-10-05T11:22:52.553Z,65.14
2022-10-05T11:25:22.265Z,66.17
2022-10-05T11:28:15.210Z,62.50
2022-10-05T11:30:59.729Z,61.14
2022-10-05T11:33:32.174Z,62.06
2022-10-05T11:36:25.914Z,60.67
2022-10-05T11:39:11.097Z,60.61
2022-10-05T11:41:52.710Z,58.19
2022-10-05T11:44:57.575Z,60.75
2022-10-05T11:47:54.035Z,57.51
2022-10-05T11:50:33.082Z,56.13
2022-10-05T11:53:37.615Z,51.90
2022-10-05T11:56:08.035Z,50.76
2022-10-05T11:58:56.083Z,50.74
2022-10-05T12:02:10.741Z,51.45
2022-10-05T12:04:40.435Z,50.70
2022-10-05T12:07:20.280Z,49.40
2022-10-05T12:10:11.245Z,50.39
2022-10-05T12:12:49.932Z,50.36
2022-10-05T12:15:26.757Z,49.31
2022-10-05T12:18:08.338Z,50.64
2022-10-05T12:20:45.988Z,50.46
2022-10-05T12:23:34.338Z,48.38
2022-10-05T12:26:16.658Z,50.38
2022-10-05T12:29:07.805Z,49.99
2022-10-05T12:31:47.029Z,50.35
2022-10-05T12:35:07.650Z,50.79
2022-10-05T12:37:54.187Z,52.00
2022-10-05T12:40:40.961Z,54.57
2022-10-05T12:43:39.653Z,57.93
2022-10-05T12:46:24.934Z,56.99
2022-10-05T12:49:13.763Z,56.59
2022-10-05T12:51:58.053Z,58.96
2022-10-05T12:54:35.486Z,60.20
2022-10-05T12:57:30.579Z,60.22
2022-10-05T13:00:13.312Z,60.65
2022-10-05T13:02:59.634Z,63.58
2022-10-05T13:06:08.154Z,62.86
2022-10-05T13:08:54.363Z,62.80
2022-10-05T13:11:40.778Z,60.68
2022-10-05T13:14:54.152Z,61.13
2022-10-05T13:17:35.096Z,63.32
2022-10-05T13:20:16.170Z,61.12
2022-10-05T13:23:07.107Z,63.44
2022-10-05T13:26:11.189Z,66.42
2022-10-05T13:28:51.068Z,67.15
2022-10-05T13:31:42.536Z,65.41
2022-10-05T13:34:38.709Z,69.38
2022-10-05T13:37:26.454Z,70.73
2022-10-05T13:40:16.504Z,71.89
2022-10-05T13:43:08.890Z,75.37
2022-10-05T13:45:42.251Z,73.28
2022-10-05T13:48:26.983Z,73.93
2022-10-05T13:51:04.533Z,72.44
2022-10-05T13:53:39.545Z,74.40
2022-10-05T13:56:40.361Z,73.15
2022-10-05T13:59:08.153Z,73.25
2022-10-05T14:01:42.200Z,74.77
2022-10-05T14:04:18.891Z,77.78
2022-10-05T14:06:49.358Z,77.45
2022-10-05T14:09:22.309Z,78.65
2022-10-05T14:11:51.747Z,82.27
2022-10-05T14:14:30.449Z,79.87
2022-10-05T14:16:59.572Z,81.17
2022-10-05T14:19:42.225Z,84.22
2022-10-05T14:22:22.566Z,78.09
2022-10-05T14:25:11.545Z,77.97
2022-10-05T14:27:49.920Z,81.79
2022-10-05T14:30:25.787Z,81.31
2022-10-05T14:32:58.601Z,81.29
2022-10-05T14:35:43.607Z,81.24
2022-10-05T14:38:32.577Z,80.68
2022-10-05T14:41:08.321Z,82.36
2022-10-05T14:43:37.901Z,84.70
2022-10-05T14:46:17.103Z,83.17
2022-10-05T14:48:46.479Z,85.03
2022-10-05T14:51:25.846Z,86.28
2022-10-05T14:54:14.915Z,84.95
2022-10-05T14:57:02.397Z,86.05
2022-10-05T14:59:55.260Z,87.29
2022-10-05T15:02:45.123Z,89.59
2022-10-05T15:05:26.816Z,89.83
2022-10-05T15:08:01.507Z,91.78
2022-10-05T15:10:45.672Z,92.42
2022-10-05T15:13:16.287Z,93.86
2022-10-05T15:15:54.977Z,95.69
2022-10-05T15:18:37.370Z,97.73
2022-10-05T15:21:34.101Z,100.00
2022-10-05T15:24:09.333Z,100.00
2022-10-05T15:26:52.833Z,100.00
2022-10-05T15:29:31.861Z,100.00
2022-10-05T15:32:23.033Z,100.00
2022-10-05T15:34:59.107Z,100.00
2022-10-05T15:37:32.021Z,100.00
2022-10-05T15:40:03.739Z,100.00
2022-10-05T15:42:43.059Z,100.00
2022-10-05T15:45:30.053Z,100.00
2022-10-05T15:48:03.173Z,100.00
2022-10-05T15:50:55.965Z,100.00
2022-10-05T15:53:34.102Z,100.00
2022-10-05T15:56:27.035Z,100.00
2022-10-05T15:59:13.089Z,100.00
2022-10-05T16:02:01.435Z,100.00
2022-10-05T16:04:34.731Z,100.00
2022-10-05T16:07:22.030Z,100.00
2022-10-05T16:10:04.009Z,100.00
2022-10-05T16:12:50.347Z,100.00
2022-10-05T16:15:33.642Z,100.00
2022-10-05T16:18:09.158Z,100.00
2022-10-05T16:20:57.020Z,100.00
2022-10-05T16:23:36.436Z,100.00
2022-10-05T16:26:38.663Z,100.00
2022-10-05T16:29:25.339Z,100.00
2022-10-05T16:32:16.280Z,100.00
2022-10-05T16:35:17.225Z,100.00
2022-10-05T16:38:13.801Z,100.00
2022-10-05T16:41:13.144Z,100.00
2022-10-05T16:44:20.986Z,100.00
2022-10-05T16:47:04.953Z,100.00
2022-10-05T16:50:12.432Z,100.00
2022-10-05T16:52:45.384Z,100.00
2022-10-05T16:55:21.076Z,100.00
2022-10-05T16:57:55.763Z,100.00
2022-10-05T17:00:23.835Z,100.00
2022-10-05T17:02:53.513Z,100.00
2022-10-05T17:05:41.159Z,100.00
2022-10-05T17:08:30.501Z,100.00
2022-10-05T17:11:12.255Z,100.00
2022-10-05T17:14:13.888Z,100.00
2022-10-05T17:17:02.540Z,100.00
2022-10-05T17:20:17.551Z,100.00
2022-10-05T17:23:23.505Z,100.00
2022-10-05T17:25:55.838Z,100.00
2022-10-05T17:28:42.447Z,100.00
2022-10-05T17:31:17.350Z,100.00
2022-10-05T17:33:59.708Z,100.00
2022-10-05T17:36:51.363Z,100.00
2022-10-05T17:39:21.012Z,100.00
2022-10-05T17:41:48.408Z,100.00
2022-10-05T17:44:21.304Z,100.00
2022-10-05T17:46:59.317Z,100.00
2022-10-05T17:49:38.219Z,100.00
2022-10-05T17:52:45.767Z,100.00
2022-10-05T17:55:34.432Z,100.00
2022-10-05T17:58:24.475Z,100.00
2022-10-05T18:01:12.933Z,100.00
2022-10-05T18:03:48.986Z,100.00
2022-10-05T18:06:37.378Z,100.00
2022-10-05T18:09:22.494Z,100.00
2022-10-05T18:12:24.573Z,100.00
2022-10-05T18:15:22.351Z,100.00
2022-10-05T18:17:59.550Z,100.00
2022-10-05T18:20:32.270Z,100.00
2022-10-05T18:23:09.395Z,100.00
2022-10-05T18:25:45.392Z,100.00
2022-10-05T18:28:26.039Z,100.00
2022-10-05T18:31:11.453Z,100.00
2022-10-05T18:33:56.161Z,100.00
2022-10-05T18:36:51.541Z,100.00
2022-10-05T18:39:29.884Z,100.00
2022-10-05T18:42:02.572Z,100.00
2022-10-05T18:44:33.079Z,100.00
2022-10-05T18:47:09.042Z,100.00
2022-10-05T18:49:49.164Z,100.00
2022-10-05T18:52:18.853Z,100.00
2022-10-05T18:54:48.327Z,100.00
2022-10-05T18:57:36.157Z,100.00
2022-10-05T19:00:17.005Z,100.00
2022-10-05T19:02:53.472Z,100.00
2022-10-05T19:05:52.736Z,100.00
2022-10-05T19:08:41.107Z,100.00
2022-10-05T19:11:33.227Z,100.00
2022-10-05T19:14:24.428Z,100.00
2022-10-05T19:17:24.922Z,100.00
2022-10-05T19:20:17.316Z,100.00
2022-10-05T19:23:05.281Z,100.00
2022-10-05T19:26:10.035Z,100.00
2022-10-05T19:29:11.552Z,100.00
2022-10-05T19:32:23.561Z,100.00
2022-10-05T19:35:12.076Z,100.00
2022-10-05T19:38:09.646Z,100.00
2022-10-05T19:40:45.829Z,100.00
2022-10-05T19:43:30.860Z,100.00
2022-10-05T19:46:19.355Z,100.00
2022-10-05T19:48:53.512Z,100.00
2022-10-05T19:51:31.052Z,100.00
2022-10-05T19:54:02.344Z,100.00
2022-10-05T19:56:33.570Z,100.00
2022-10-05T19:59:18.958Z,100.00
2022-10-05T20:01:54.438Z,100.00
2022-10-05T20:04:37.936Z,100.00
2022-10-05T20:07:05.069Z,100.00
2022-10-05T20:09:53.860Z,100.00
2022-10-05T20:12:23.149Z,100.00
2022-10-05T20:15:25.303Z,100.00
2022-10-05T20:18:10.741Z,100.00
2022-10-05T20:20:45.783Z,100.00
2022-10-05T20:23:23.781Z,100.00
2022-10-05T20:26:10.089Z,100.00
2022-10-05T20:28:37.452Z,100.00
2022-10-05T20:31:07.786Z,100.00
2022-10-05T20:33:35.238Z,100.00
2022-10-05T20:36:03.733Z,100.00
2022-10-05T20:38:31.770Z,100.00
2022-10-05T20:40:58.700Z,100.00
2022-10-05T20:43:25.461Z,100.00
2022-10-05T20:45:53.865Z,100.00
2022-10-05T20:48:20.740Z,100.00
2022-10-05T20:50:47.669Z,100.00
2022-10-05T20:53:14.482Z,100.00
2022-10-05T20:55:41.357Z,100.00
2022-10-05T20:58:09.108Z,100.00
2022-10-05T21:01:08.382Z,100.00
2022-10-05T21:03:35.178Z,100.00
2022-10-05T21:06:02.041Z,100.00
2022-10-05T21:08:29.095Z,100.00
2022-10-05T21:10:56.068Z,100.00
2022-10-05T21:13:22.803Z,100.00
2022-10-05T21:15:49.496Z,100.00
2022-10-05T21:18:17.171Z,100.00
2022-10-05T21:20:50.616Z,100.00
2022-10-05T21:23:17.359Z,100.00
2022-10-05T21:25:44.041Z,100.00
2022-10-05T21:28:10.755Z,100.00
2022-10-05T21:30:37.757Z,100.00
2022-10-05T21:33:04.760Z,100.00
2022-10-05T21:35:31.611Z,100.00
2022-10-05T21:37:58.324Z,100.00
2022-10-05T21:40:25.001Z,100.00
2022-10-05T21:42:51.756Z,100.00
2022-10-05T21:45:18.506Z,100.00
2022-10-05T21:47:45.188Z,100.00
2022-10-05T21:50:11.883Z,100.00
2022-10-05T21:52:38.749Z,100.00
2022-10-05T21:55:06.394Z,100.00
2022-10-05T21:57:34.735Z,100.00
2022-10-05T22:00:01.560Z,100.00
2022-10-05T22:02:33.162Z,100.00
2022-10-05T22:04:59.875Z,100.00
2022-10-05T22:07:26.728Z,100.00
2022-10-05T22:09:53.424Z,100.00
2022-10-05T22:12:20.989Z,100.00
2022-10-05T22:14:48.238Z,100.00
2022-10-05T22:17:19.853Z,100.00
2022-10-05T22:19:46.740Z,100.00
2022-10-05T22:22:13.413Z,100.00
2022-10-05T22:24:40.135Z,100.00
2022-10-05T22:27:07.033Z,100.00
2022-10-05T22:29:33.840Z,100.00
2022-10-05T22:32:00.556Z,100.00
2022-10-05T22:34:27.284Z,100.00
2022-10-05T22:36:54.243Z,100.00
2022-10-05T22:39:20.950Z,100.00
2022-10-05T22:41:47.876Z,100.00
2022-10-05T22:44:15.172Z,100.00
2022-10-05T22:46:41.925Z,100.00
2022-10-05T22:49:08.718Z,100.00
2022-10-05T22:51:35.429Z,100.00
2022-10-05T22:54:02.181Z,100.00
2022-10-05T22:56:29.203Z,100.00
2022-10-05T22:58:55.953Z,100.00
2022-10-05T23:01:22.759Z,100.00
2022-10-05T23:03:49.465Z,100.00
2022-10-05T23:06:19.643Z,100.00
2022-10-05T23:08:46.595Z,100.00
2022-10-05T23:11:14.661Z,100.00
2022-10-05T23:13:41.393Z,100.00
2022-10-05T23:16:16.115Z,100.00
2022-10-05T23:18:43.617Z,100.00
2022-10-05T23:21:11.394Z,100.00
2022-10-05T23:23:40.056Z,100.00
2022-10-05T23:26:09.122Z,100.00
2022-10-05T23:28:35.849Z,100.00
2022-10-05T23:31:05.579Z,100.00
2022-10-05T23:33:33.169Z,100.00
2022-10-05T23:36:19.764Z,100.00
2022-10-05T23:38:46.944Z,100.00
2022-10-05T23:41:13.770Z,100.00
2022-10-05T23:43:40.568Z,100.00
2022-10-05T23:46:08.089Z,100.00
2022-10-05T23:48:38.079Z,100.00
2022-10-05T23:51:06.499Z,100.00
2022-10-05T23:53:33.573Z,100.00
2022-10-05T23:56:00.481Z,100.00
2022-10-05T23:58:27.447Z,100.00
